createdAt,value
2022-07-31T00:00:27.079Z,18.43
2022-07-31T00:02:53.752Z,18.37
2022-07-31T00:05:20.390Z,18.35
2022-07-31T00:07:47.041Z,18.32
2022-07-31T00:10:13.697Z,18.31
2022-07-31T00:12:40.656Z,18.23
2022-07-31T00:15:10.265Z,18.17
2022-07-31T00:17:40.550Z,18.14
2022-07-31T00:20:08.071Z,18.08
2022-07-31T00:22:35.668Z,18.04
2022-07-31T00:25:02.425Z,18.01
2022-07-31T00:27:29.200Z,17.94
2022-07-31T00:29:55.851Z,17.89
2022-07-31T00:32:22.481Z,17.85
2022-07-31T00:34:49.128Z,17.86
2022-07-31T00:37:15.899Z,17.84
2022-07-31T00:39:42.952Z,17.81
2022-07-31T00:42:24.091Z,17.78
2022-07-31T00:44:51.640Z,17.77
2022-07-31T00:47:20.027Z,17.76
2022-07-31T00:49:52.260Z,17.78
2022-07-31T00:52:19.120Z,17.73
2022-07-31T00:54:45.823Z,17.69
2022-07-31T00:57:12.426Z,17.67
2022-07-31T00:59:39.042Z,17.68
2022-07-31T01:02:05.699Z,17.70
2022-07-31T01:04:32.307Z,17.68
2022-07-31T01:07:01.465Z,17.68
2022-07-31T01:09:28.432Z,17.66
2022-07-31T01:12:03.596Z,17.64
2022-07-31T01:14:35.640Z,17.55
2022-07-31T01:17:06.195Z,17.49
2022-07-31T01:19:42.724Z,17.41
2022-07-31T01:22:44.077Z,17.40
2022-07-31T01:25:48.573Z,17.38
2022-07-31T01:28:42.939Z,17.35
2022-07-31T01:31:29.145Z,17.35
2022-07-31T01:34:05.603Z,17.35
2022-07-31T01:36:35.052Z,17.33
2022-07-31T01:39:02.911Z,17.29
2022-07-31T01:41:34.364Z,17.21
2022-07-31T01:44:05.472Z,17.19
2022-07-31T01:46:37.512Z,17.16
2022-07-31T01:49:11.143Z,17.18
2022-07-31T01:51:39.996Z,17.20
2022-07-31T01:54:07.703Z,17.20
2022-07-31T01:56:36.471Z,17.21
2022-07-31T01:59:04.684Z,17.18
2022-07-31T02:01:44.659Z,17.17
2022-07-31T02:04:14.427Z,17.17
2022-07-31T02:06:42.489Z,17.18
2022-07-31T02:09:09.478Z,17.18
2022-07-31T02:11:53.241Z,17.17
2022-07-31T02:14:24.754Z,17.15
2022-07-31T02:16:51.463Z,17.11
2022-07-31T02:19:20.072Z,17.07
2022-07-31T02:21:46.781Z,16.99
2022-07-31T02:24:13.628Z,16.91
2022-07-31T02:26:40.658Z,16.84
2022-07-31T02:29:19.532Z,16.78
2022-07-31T02:32:03.594Z,16.75
2022-07-31T02:34:31.921Z,16.72
2022-07-31T02:37:00.937Z,16.73
2022-07-31T02:39:30.636Z,16.73
2022-07-31T02:42:01.713Z,16.72
2022-07-31T02:44:31.859Z,16.70
2022-07-31T02:47:02.615Z,16.68
2022-07-31T02:49:30.968Z,16.68
2022-07-31T02:51:58.593Z,16.70
2022-07-31T02:54:26.072Z,16.71
2022-07-31T02:56:53.723Z,16.68
2022-07-31T02:59:22.162Z,16.66
2022-07-31T03:01:48.846Z,16.61
2022-07-31T03:04:15.789Z,16.57
2022-07-31T03:06:43.508Z,16.55
2022-07-31T03:09:10.229Z,16.59
2022-07-31T03:11:36.951Z,16.63
2022-07-31T03:14:05.461Z,16.62
2022-07-31T03:16:32.753Z,16.59
2022-07-31T03:19:00.904Z,16.54
2022-07-31T03:21:28.399Z,16.53
2022-07-31T03:23:55.496Z,16.52
2022-07-31T03:26:22.284Z,16.53
2022-07-31T03:28:48.897Z,16.53
2022-07-31T03:31:15.601Z,16.54
2022-07-31T03:33:42.816Z,16.55
2022-07-31T03:36:12.888Z,16.55
2022-07-31T03:38:41.356Z,16.57
2022-07-31T03:41:10.600Z,16.52
2022-07-31T03:43:44.246Z,16.52
2022-07-31T03:46:17.266Z,16.49
2022-07-31T03:48:44.651Z,16.50
2022-07-31T03:51:11.629Z,16.47
2022-07-31T03:53:38.915Z,16.45
2022-07-31T03:56:07.037Z,16.46
2022-07-31T03:58:34.151Z,16.50
2022-07-31T04:01:04.622Z,16.55
2022-07-31T04:03:34.969Z,16.61
2022-07-31T04:06:01.604Z,16.64
2022-07-31T04:08:28.218Z,16.68
2022-07-31T04:10:54.848Z,16.73
2022-07-31T04:13:21.443Z,16.76
2022-07-31T04:15:48.420Z,16.80
2022-07-31T04:18:15.006Z,16.84
2022-07-31T04:20:41.630Z,16.89
2022-07-31T04:23:08.243Z,16.95
2022-07-31T04:25:36.259Z,17.00
2022-07-31T04:28:02.846Z,17.08
2022-07-31T04:30:29.535Z,17.12
2022-07-31T04:32:59.274Z,17.16
2022-07-31T04:35:25.900Z,17.18
2022-07-31T04:37:52.601Z,17.20
2022-07-31T04:40:19.200Z,17.23
2022-07-31T04:42:45.804Z,17.28
2022-07-31T04:45:12.493Z,17.33
2022-07-31T04:47:39.152Z,17.38
2022-07-31T04:50:06.335Z,17.42
2022-07-31T04:52:32.963Z,17.48
2022-07-31T04:54:59.548Z,17.53
2022-07-31T04:57:26.478Z,17.58
2022-07-31T05:00:00.302Z,17.61
2022-07-31T05:02:28.391Z,17.66
2022-07-31T05:04:57.111Z,17.73
2022-07-31T05:07:26.663Z,17.79
2022-07-31T05:09:56.460Z,17.85
2022-07-31T05:12:23.156Z,17.87
2022-07-31T05:14:49.867Z,17.92
2022-07-31T05:17:16.839Z,17.97
2022-07-31T05:19:43.481Z,18.02
2022-07-31T05:22:11.616Z,18.07
2022-07-31T05:24:38.288Z,18.12
2022-07-31T05:27:05.604Z,18.19
2022-07-31T05:29:33.262Z,18.26
2022-07-31T05:32:01.181Z,18.33
2022-07-31T05:34:31.228Z,18.40
2022-07-31T05:37:01.522Z,18.45
2022-07-31T05:39:29.118Z,18.51
2022-07-31T05:41:55.826Z,18.57
2022-07-31T05:44:22.598Z,18.65
2022-07-31T05:49:15.768Z,18.78
2022-07-31T05:51:46.889Z,18.84
2022-07-31T05:54:13.805Z,18.90
2022-07-31T05:56:40.436Z,18.97
2022-07-31T05:59:07.092Z,19.05
2022-07-31T06:01:33.778Z,19.13
2022-07-31T06:04:00.545Z,19.21
2022-07-31T06:06:27.127Z,19.27
2022-07-31T06:08:53.840Z,19.32
2022-07-31T06:11:20.971Z,19.39
2022-07-31T06:13:47.594Z,19.49
2022-07-31T06:16:15.242Z,19.56
2022-07-31T06:18:42.574Z,19.64
2022-07-31T06:21:09.844Z,19.71
2022-07-31T06:23:36.678Z,19.79
2022-07-31T06:26:03.902Z,19.84
2022-07-31T06:28:43.239Z,19.91
2022-07-31T06:31:22.627Z,19.97
2022-07-31T06:33:50.157Z,20.05
2022-07-31T06:36:18.707Z,20.11
2022-07-31T06:38:46.154Z,20.19
2022-07-31T06:41:32.915Z,20.28
2022-07-31T06:43:59.551Z,20.35
2022-07-31T06:46:26.144Z,20.42
2022-07-31T06:48:52.785Z,20.51
2022-07-31T06:51:35.015Z,20.59
2022-07-31T06:54:03.157Z,20.67
2022-07-31T06:56:30.756Z,20.71
2022-07-31T06:58:57.602Z,20.79
2022-07-31T07:01:24.399Z,20.86
2022-07-31T07:03:51.200Z,20.94
2022-07-31T07:06:18.188Z,21.01
2022-07-31T07:08:44.936Z,21.10
2022-07-31T07:11:12.515Z,21.17
2022-07-31T07:13:44.953Z,21.24
2022-07-31T07:16:14.465Z,21.32
2022-07-31T07:18:41.144Z,21.39
2022-07-31T07:21:07.735Z,21.49
2022-07-31T07:23:35.621Z,21.55
2022-07-31T07:26:02.391Z,21.64
2022-07-31T07:28:29.297Z,21.73
2022-07-31T07:30:57.863Z,21.83
2022-07-31T07:33:40.923Z,21.93
2022-07-31T07:36:22.759Z,22.04
2022-07-31T07:38:54.136Z,22.14
2022-07-31T07:41:23.469Z,22.23
2022-07-31T07:43:52.265Z,22.29
2022-07-31T07:46:20.233Z,22.36
2022-07-31T07:48:46.913Z,22.48
2022-07-31T07:51:13.778Z,22.57
2022-07-31T07:53:40.593Z,22.61
2022-07-31T07:56:07.252Z,22.68
2022-07-31T07:58:33.863Z,22.78
2022-07-31T08:01:01.728Z,22.84
2022-07-31T08:03:51.199Z,22.91
2022-07-31T08:06:15.019Z,22.99
2022-07-31T08:08:41.606Z,23.05
2022-07-31T08:11:08.256Z,23.10
2022-07-31T08:13:34.920Z,23.17
2022-07-31T08:16:01.864Z,23.23
2022-07-31T08:18:28.701Z,23.29
2022-07-31T08:20:55.513Z,23.35
2022-07-31T08:23:22.171Z,23.41
2022-07-31T08:25:48.818Z,23.48
2022-07-31T08:28:19.559Z,23.52
2022-07-31T08:30:50.684Z,23.60
2022-07-31T08:33:17.346Z,23.62
2022-07-31T08:35:47.456Z,23.64
2022-07-31T08:38:20.655Z,23.70
2022-07-31T08:40:47.399Z,23.76
2022-07-31T08:44:01.926Z,23.81
2022-07-31T08:46:04.858Z,23.89
2022-07-31T08:48:33.376Z,23.94
2022-07-31T08:51:03.603Z,24.02
2022-07-31T08:53:31.220Z,24.09
2022-07-31T08:55:58.098Z,24.15
2022-07-31T08:58:24.947Z,24.19
2022-07-31T09:00:53.386Z,24.25
2022-07-31T09:03:20.128Z,24.31
2022-07-31T09:05:46.760Z,24.37
2022-07-31T09:08:14.981Z,24.40
2022-07-31T09:10:46.370Z,24.45
2022-07-31T09:13:18.674Z,24.52
2022-07-31T09:15:45.661Z,24.56
2022-07-31T09:18:22.287Z,24.61
2022-07-31T09:21:04.134Z,24.67
2022-07-31T09:23:32.183Z,24.73
2022-07-31T09:26:06.108Z,24.78
2022-07-31T09:28:38.208Z,24.83
2022-07-31T09:31:07.417Z,24.87
2022-07-31T09:33:36.663Z,24.91
2022-07-31T09:36:04.181Z,24.97
2022-07-31T09:38:42.286Z,25.03
2022-07-31T09:41:56.011Z,25.13
2022-07-31T09:44:09.532Z,25.23
2022-07-31T09:46:46.461Z,25.34
2022-07-31T09:49:13.774Z,25.45
2022-07-31T09:51:45.552Z,25.55
2022-07-31T09:54:22.872Z,25.63
2022-07-31T09:56:50.504Z,25.73
2022-07-31T09:59:17.531Z,25.79
2022-07-31T10:01:48.885Z,25.86
2022-07-31T10:04:21.303Z,25.92
2022-07-31T10:06:50.352Z,26.00
2022-07-31T10:09:19.657Z,26.16
2022-07-31T10:11:48.565Z,26.31
2022-07-31T10:14:31.050Z,26.48
2022-07-31T10:17:01.157Z,26.62
2022-07-31T10:19:34.995Z,26.74
2022-07-31T10:22:04.580Z,26.82
2022-07-31T10:24:33.457Z,26.88
2022-07-31T10:27:03.901Z,26.99
2022-07-31T10:29:39.337Z,27.09
2022-07-31T10:32:07.127Z,27.20
2022-07-31T10:34:35.044Z,27.28
2022-07-31T10:37:18.546Z,27.46
2022-07-31T10:39:47.793Z,27.56
2022-07-31T10:42:55.825Z,27.62
2022-07-31T10:45:23.908Z,27.65
2022-07-31T10:47:55.630Z,27.67
2022-07-31T10:50:24.677Z,27.68
2022-07-31T10:52:51.453Z,27.73
2022-07-31T10:55:22.402Z,27.79
2022-07-31T10:57:57.271Z,27.86
2022-07-31T11:00:28.515Z,27.87
2022-07-31T11:02:57.120Z,27.82
2022-07-31T11:05:26.029Z,27.82
2022-07-31T11:08:04.975Z,27.81
2022-07-31T11:10:31.981Z,27.81
2022-07-31T11:13:05.044Z,27.80
2022-07-31T11:15:37.582Z,27.88
2022-07-31T11:18:24.912Z,27.99
2022-07-31T11:21:13.705Z,28.10
2022-07-31T11:23:55.935Z,28.13
2022-07-31T11:26:33.335Z,28.08
2022-07-31T11:29:57.713Z,28.12
2022-07-31T11:31:55.697Z,28.17
2022-07-31T11:34:22.447Z,28.22
2022-07-31T11:36:51.536Z,28.29
2022-07-31T11:39:18.581Z,28.39
2022-07-31T11:41:47.427Z,28.44
2022-07-31T11:44:20.939Z,28.45
2022-07-31T11:46:51.043Z,28.55
2022-07-31T11:49:47.756Z,28.65
2022-07-31T11:52:31.320Z,28.70
2022-07-31T11:55:13.471Z,28.75
2022-07-31T11:57:50.917Z,28.81
2022-07-31T12:00:26.749Z,28.88
2022-07-31T12:02:58.001Z,28.86
2022-07-31T12:05:38.719Z,28.83
2022-07-31T12:08:07.987Z,28.73
2022-07-31T12:10:35.439Z,28.66
2022-07-31T12:13:02.381Z,28.67
2022-07-31T12:15:29.107Z,28.69
2022-07-31T12:18:04.081Z,28.76
2022-07-31T12:20:36.499Z,28.87
2022-07-31T12:23:05.743Z,28.92
2022-07-31T12:25:43.327Z,28.87
2022-07-31T12:28:13.267Z,28.78
2022-07-31T12:30:40.716Z,28.79
2022-07-31T12:33:09.515Z,28.83
2022-07-31T12:35:55.385Z,28.79
2022-07-31T12:38:40.841Z,28.74
2022-07-31T12:41:12.984Z,28.69
2022-07-31T12:43:50.410Z,28.68
2022-07-31T12:46:19.191Z,28.67
2022-07-31T12:48:46.363Z,28.64
2022-07-31T12:51:13.378Z,28.54
2022-07-31T12:53:40.071Z,28.55
2022-07-31T12:56:11.785Z,28.54
2022-07-31T12:58:38.441Z,28.49
2022-07-31T13:01:05.052Z,28.45
2022-07-31T13:03:38.815Z,28.45
2022-07-31T13:06:14.236Z,28.51
2022-07-31T13:08:43.902Z,28.55
2022-07-31T13:11:11.108Z,28.54
2022-07-31T13:13:37.752Z,28.65
2022-07-31T13:16:04.522Z,28.74
2022-07-31T13:18:32.561Z,28.77
2022-07-31T13:20:59.244Z,28.73
2022-07-31T13:23:25.914Z,28.81
2022-07-31T13:25:54.915Z,28.95
2022-07-31T13:28:21.544Z,29.02
2022-07-31T13:30:50.978Z,29.05
2022-07-31T13:33:21.397Z,29.13
2022-07-31T13:35:48.012Z,29.17
2022-07-31T13:38:17.603Z,29.15
2022-07-31T13:41:02.720Z,29.14
2022-07-31T13:43:29.344Z,29.18
2022-07-31T13:45:55.987Z,29.18
2022-07-31T13:48:22.583Z,29.11
2022-07-31T13:50:49.199Z,29.05
2022-07-31T13:53:15.783Z,29.13
2022-07-31T13:55:45.110Z,29.30
2022-07-31T13:58:15.668Z,29.37
2022-07-31T14:00:42.308Z,29.34
2022-07-31T14:03:08.980Z,29.35
2022-07-31T14:05:40.031Z,29.38
2022-07-31T14:08:33.216Z,29.52
2022-07-31T14:10:54.059Z,29.64
2022-07-31T14:13:20.700Z,29.69
2022-07-31T14:15:47.862Z,29.73
2022-07-31T14:18:14.836Z,29.79
2022-07-31T14:20:41.678Z,29.79
2022-07-31T14:23:08.385Z,29.79
2022-07-31T14:25:39.681Z,29.87
2022-07-31T14:28:08.059Z,30.01
2022-07-31T14:30:35.159Z,30.08
2022-07-31T14:33:01.916Z,30.03
2022-07-31T14:35:28.580Z,30.02
2022-07-31T14:37:55.213Z,29.95
2022-07-31T14:40:22.992Z,29.94
2022-07-31T14:42:49.640Z,30.03
2022-07-31T14:45:16.263Z,30.19
2022-07-31T14:47:45.199Z,30.29
2022-07-31T14:50:16.137Z,30.28
2022-07-31T14:52:46.065Z,30.23
2022-07-31T14:55:12.722Z,30.10
2022-07-31T14:57:39.385Z,29.84
2022-07-31T15:00:13.509Z,29.65
2022-07-31T15:02:42.414Z,29.52
2022-07-31T15:06:38.713Z,29.43
2022-07-31T15:07:56.356Z,29.50
2022-07-31T15:10:22.981Z,29.52
2022-07-31T15:12:50.875Z,29.51
2022-07-31T15:15:17.525Z,29.46
2022-07-31T15:17:44.151Z,29.48
2022-07-31T15:20:11.196Z,29.45
2022-07-31T15:22:37.867Z,29.47
2022-07-31T15:25:04.825Z,29.44
2022-07-31T15:27:31.436Z,29.47
2022-07-31T15:30:04.208Z,29.49
2022-07-31T15:32:38.858Z,29.50
2022-07-31T15:35:07.497Z,29.37
2022-07-31T15:37:36.005Z,29.17
2022-07-31T15:40:05.220Z,29.05
2022-07-31T15:42:32.658Z,29.05
2022-07-31T15:44:59.314Z,29.03
2022-07-31T15:47:25.960Z,29.07
2022-07-31T15:49:52.584Z,29.08
2022-07-31T15:52:19.788Z,29.15
2022-07-31T15:54:47.068Z,29.17
2022-07-31T15:57:14.605Z,29.22
2022-07-31T15:59:41.872Z,29.35
2022-07-31T16:02:08.612Z,29.40
2022-07-31T16:04:36.838Z,29.28
2022-07-31T16:08:29.715Z,29.17
2022-07-31T16:10:15.265Z,29.15
2022-07-31T16:12:46.892Z,29.11
2022-07-31T16:15:15.027Z,29.08
2022-07-31T16:17:43.223Z,29.05
2022-07-31T16:20:20.885Z,29.01
2022-07-31T16:22:55.619Z,28.94
2022-07-31T16:25:23.173Z,28.94
2022-07-31T16:27:49.848Z,28.98
2022-07-31T16:30:16.647Z,28.95
2022-07-31T16:32:43.560Z,28.83
2022-07-31T16:35:12.507Z,28.61
2022-07-31T16:37:51.424Z,28.26
2022-07-31T16:40:31.083Z,28.10
2022-07-31T16:43:47.276Z,28.19
2022-07-31T16:45:50.428Z,28.21
2022-07-31T16:48:17.611Z,28.16
2022-07-31T16:50:44.323Z,28.18
2022-07-31T16:53:34.637Z,28.26
2022-07-31T16:56:00.929Z,28.28
2022-07-31T16:58:28.973Z,28.09
2022-07-31T17:00:55.822Z,27.88
2022-07-31T17:03:59.412Z,27.54
2022-07-31T17:06:10.514Z,27.29
2022-07-31T17:08:38.374Z,27.25
2022-07-31T17:11:05.695Z,27.20
2022-07-31T17:13:32.680Z,27.22
2022-07-31T17:15:59.413Z,27.35
2022-07-31T17:18:26.615Z,27.48
2022-07-31T17:20:56.126Z,27.53
2022-07-31T17:23:43.424Z,27.34
2022-07-31T17:26:20.759Z,27.03
2022-07-31T17:28:48.601Z,26.81
2022-07-31T17:31:15.232Z,26.56
2022-07-31T17:33:55.852Z,26.31
2022-07-31T17:36:28.119Z,25.94
2022-07-31T17:38:54.825Z,25.70
2022-07-31T17:41:25.564Z,25.53
2022-07-31T17:43:55.984Z,25.30
2022-07-31T17:46:35.007Z,25.04
2022-07-31T17:49:11.661Z,24.69
2022-07-31T17:51:59.527Z,24.44
2022-07-31T17:54:32.782Z,24.21
2022-07-31T17:57:00.019Z,24.07
2022-07-31T17:59:27.517Z,23.95
2022-07-31T18:02:00.194Z,23.83
2022-07-31T18:04:33.855Z,23.76
2022-07-31T18:07:02.171Z,23.72
2022-07-31T18:09:29.146Z,23.68
2022-07-31T18:11:57.411Z,23.58
2022-07-31T18:14:25.050Z,23.48
2022-07-31T18:16:52.304Z,23.34
2022-07-31T18:19:19.169Z,23.21
2022-07-31T18:21:45.769Z,23.12
2022-07-31T18:24:12.387Z,23.06
2022-07-31T18:26:39.303Z,22.98
2022-07-31T18:29:05.945Z,22.93
2022-07-31T18:31:35.128Z,22.87
2022-07-31T18:34:06.338Z,22.83
2022-07-31T18:36:33.808Z,22.73
2022-07-31T18:39:01.399Z,22.64
2022-07-31T18:41:28.098Z,22.60
2022-07-31T18:43:55.129Z,22.60
2022-07-31T18:46:23.812Z,22.60
2022-07-31T18:48:55.578Z,22.59
2022-07-31T18:51:23.420Z,22.56
2022-07-31T18:53:50.460Z,22.55
2022-07-31T18:56:17.313Z,22.55
2022-07-31T18:58:44.145Z,22.53
2022-07-31T19:01:10.923Z,22.50
2022-07-31T19:03:37.684Z,22.43
2022-07-31T19:06:04.690Z,22.38
2022-07-31T19:08:31.496Z,22.36
2022-07-31T19:10:58.564Z,22.33
2022-07-31T19:13:25.369Z,22.30
2022-07-31T19:15:53.175Z,22.28
2022-07-31T19:18:28.050Z,22.28
2022-07-31T19:20:56.241Z,22.24
2022-07-31T19:23:25.330Z,22.17
2022-07-31T19:26:02.544Z,22.09
2022-07-31T19:28:32.131Z,21.98
2022-07-31T19:30:59.510Z,21.90
2022-07-31T19:33:26.350Z,21.81
2022-07-31T19:36:00.402Z,21.76
2022-07-31T19:38:29.010Z,21.72
2022-07-31T19:40:55.738Z,21.68
2022-07-31T19:43:22.578Z,21.67
2022-07-31T19:46:09.487Z,21.64
2022-07-31T19:48:36.910Z,21.58
2022-07-31T19:51:04.852Z,21.48
2022-07-31T19:53:31.556Z,21.41
2022-07-31T19:55:58.397Z,21.37
2022-07-31T19:58:25.068Z,21.33
2022-07-31T20:00:51.819Z,21.28
2022-07-31T20:03:18.835Z,21.22
2022-07-31T20:05:45.625Z,21.15
2022-07-31T20:08:12.319Z,21.09
2022-07-31T20:10:39.069Z,21.00
2022-07-31T20:13:05.774Z,20.93
2022-07-31T20:15:51.992Z,20.86
2022-07-31T20:18:28.582Z,20.78
2022-07-31T20:20:57.390Z,20.72
2022-07-31T20:23:25.289Z,20.68
2022-07-31T20:25:52.224Z,20.65
2022-07-31T20:28:18.937Z,20.62
2022-07-31T20:30:45.554Z,20.61
2022-07-31T20:33:13.210Z,20.54
2022-07-31T20:35:49.193Z,20.46
2022-07-31T20:38:23.678Z,20.42
2022-07-31T20:40:55.307Z,20.35
2022-07-31T20:43:24.675Z,20.25
2022-07-31T20:45:52.072Z,20.18
2022-07-31T20:48:21.105Z,20.11
2022-07-31T20:50:48.444Z,20.03
2022-07-31T20:53:19.526Z,19.96
2022-07-31T20:55:49.439Z,19.89
2022-07-31T20:58:18.026Z,19.87
2022-07-31T21:00:45.533Z,19.84
2022-07-31T21:03:12.324Z,19.76
2022-07-31T21:05:39.032Z,19.72
2022-07-31T21:08:05.926Z,19.74
2022-07-31T21:10:32.616Z,19.72
2022-07-31T21:12:59.252Z,19.69
2022-07-31T21:15:41.627Z,19.62
2022-07-31T21:18:17.463Z,19.48
2022-07-31T21:20:51.465Z,19.37
2022-07-31T21:23:24.146Z,19.32
2022-07-31T21:25:52.386Z,19.26
2022-07-31T21:28:19.532Z,19.18
2022-07-31T21:30:49.689Z,19.11
2022-07-31T21:33:18.388Z,19.09
2022-07-31T21:35:46.195Z,19.06
2022-07-31T21:38:15.765Z,19.04
2022-07-31T21:40:43.892Z,18.99
2022-07-31T21:43:11.802Z,18.93
2022-07-31T21:45:55.658Z,18.94
2022-07-31T21:48:26.469Z,18.97
2022-07-31T21:50:53.954Z,18.94
2022-07-31T21:53:21.180Z,18.94
2022-07-31T21:55:48.327Z,18.94
2022-07-31T21:58:15.214Z,18.92
2022-07-31T22:00:42.214Z,18.91
2022-07-31T22:03:09.111Z,18.88
2022-07-31T22:05:54.426Z,18.83
2022-07-31T22:08:21.304Z,18.80
2022-07-31T22:10:50.469Z,18.77
2022-07-31T22:13:17.280Z,18.77
2022-07-31T22:15:50.425Z,18.78
2022-07-31T22:18:27.832Z,18.79
2022-07-31T22:20:54.487Z,18.76
2022-07-31T22:23:21.422Z,18.76
2022-07-31T22:25:51.644Z,18.78
2022-07-31T22:28:20.529Z,18.80
2022-07-31T22:30:48.015Z,18.81
2022-07-31T22:33:15.093Z,18.79
2022-07-31T22:35:41.864Z,18.73
2022-07-31T22:38:11.169Z,18.71
2022-07-31T22:40:38.096Z,18.63
2022-07-31T22:44:10.483Z,18.59
2022-07-31T22:45:53.475Z,18.52
2022-07-31T22:48:21.879Z,18.46
2022-07-31T22:50:49.208Z,18.44
2022-07-31T22:53:16.163Z,18.40
2022-07-31T22:55:42.822Z,18.34
2022-07-31T22:58:11.467Z,18.28
2022-07-31T23:00:38.448Z,18.25
2022-07-31T23:03:05.163Z,18.28
2022-07-31T23:06:13.041Z,18.29
2022-07-31T23:08:18.538Z,18.25
2022-07-31T23:10:45.134Z,18.21
2022-07-31T23:13:11.723Z,18.18
2022-07-31T23:15:38.378Z,18.20
2022-07-31T23:18:05.063Z,18.16
2022-07-31T23:20:31.825Z,18.11
2022-07-31T23:22:58.499Z,18.08
2022-07-31T23:25:25.093Z,18.04
2022-07-31T23:27:51.684Z,18.00
2022-07-31T23:30:18.316Z,17.95
2022-07-31T23:32:44.901Z,17.90
2022-07-31T23:35:11.586Z,17.83
2022-07-31T23:37:38.233Z,17.79
2022-07-31T23:40:05.546Z,17.76
2022-07-31T23:42:37.825Z,17.76
2022-07-31T23:45:11.481Z,17.75
2022-07-31T23:47:45.811Z,17.74
2022-07-31T23:50:13.814Z,17.77
2022-07-31T23:52:40.472Z,17.79
2022-07-31T23:55:07.373Z,17.80
2022-07-31T23:57:34.546Z,17.82
